ADDS METAR Data INFO
IDs: Format: Raw Decoded Include TAF

Data at: 0739 UTC 21 Jul 2018

PANN 210653Z AUTO 00000KT 10SM CLR 19/13 A3018 RMK AO2 SLP224 T01890133 TSNO
PANN 210553Z AUTO 00000KT 10SM CLR 23/12 A3017 RMK AO2 SLP220 T02280122 10261 20228 53003 TSNO
PANN 210453Z AUTO 30005KT 10SM CLR 25/10 A3016 RMK AO2 SLP216 T02500100 TSNO
PANN 210353Z AUTO 28005KT 10SM CLR 25/09 A3015 RMK AO2 SLP215 T02500094 TSNO
PANN 210253Z AUTO VRB04KT 10SM CLR 26/11 A3016 RMK AO2 SLP217 T02610106 56007 TSNO
PANN 210153Z AUTO 31007KT 10SM CLR 26/11 A3016 RMK AO2 SLP218 T02560106 TSNO
PANN 210053Z AUTO VRB05KT 10SM CLR 25/11 A3017 RMK AO2 SLP221 T02500106 TSNO
PANN 202353Z AUTO 30008KT 10SM CLR 24/11 A3018 RMK AO2 SLP224 T02440111 10244 20172 56011 TSNO
PANN 202253Z AUTO 30006KT 10SM CLR 24/11 A3019 RMK AO2 SLP228 T02390111 TSNO
PANN 202153Z AUTO VRB04KT 10SM CLR 22/11 A3020 RMK AO2 SLP231 T02220111 TSNO
PANN 202053Z AUTO VRB04KT 10SM CLR 22/11 A3021 RMK AO2 SLP235 T02170111 58006 TSNO
PANN 201953Z AUTO 00000KT 10SM CLR 20/10 A3021 RMK AO2 SLP236 T02000100 TSNO
PANN 201853Z AUTO 00000KT 10SM FEW050 18/09 A3023 RMK AO2 SLP241 T01830094 TSNO
PANN 201753Z AUTO 35003KT 10SM BKN050 17/09 A3023 RMK AO2 SLP241 T01670094 10178 20122 56001 TSNO
PANN 201653Z AUTO 00000KT 10SM BKN055 16/10 A3023 RMK AO2 SLP241 T01560100 TSNO
PANN 201553Z AUTO 00000KT 10SM CLR 15/09 A3023 RMK AO2 SLP240 T01500094 TSNO
PANN 201453Z AUTO 00000KT 10SM BKN060 13/09 A3023 RMK AO2 SLP241 T01280094 51003 TSNO
PANN 201353Z AUTO 26003KT 10SM BKN100 13/09 A3023 RMK AO2 SLP240 T01280094 TSNO
PANN 201253Z AUTO 25004KT 10SM BKN060 BKN100 13/10 A3023 RMK AO2 SLP240 T01280100 TSNO
PANN 201153Z AUTO 25003KT 10SM OVC110 14/10 A3022 RMK AO2 SLP238 60000 T01390100 10183 20133 51003 TSNO
PANN 201053Z AUTO 26004KT 10SM FEW065 BKN110 14/09 A3022 RMK AO2 SLP237 T01440094 TSNO
PANN 200953Z AUTO 32004KT 10SM BKN060 15/11 A3022 RMK AO2 SLP238 T01500111 TSNO
PANN 200853Z AUTO 00000KT 10SM OVC060 15/12 A3021 RMK AO2 RAE0756 SLP235 P0000 60000 T01500117 402280100 51015 TSNO
PANN 200753Z AUTO 00000KT 10SM -RA OVC060 16/12 A3020 RMK AO2 RAB24 SLP231 P0000 T01560122 TSNO
PANN 200653Z AUTO 32005KT 10SM OVC055 17/10 A3018 RMK AO2 SLP226 T01720100 TSNO
PANN 200553Z AUTO 31005KT 10SM BKN060 OVC075 18/10 A3017 RMK AO2 SLP220 T01830100 10228 20183 51015 TSNO
PANN 200453Z AUTO 34004KT 10SM BKN100 19/10 A3015 RMK AO2 SLP216 T01940100 TSNO
PANN 200353Z AUTO 33006KT 10SM FEW120 21/11 A3014 RMK AO2 SLP211 T02060106 TSNO
PANN 200253Z AUTO 31009KT 10SM FEW120 23/11 A3012 RMK AO2 SLP204 T02280106 51000 TSNO
PANN 200153Z AUTO 31008KT 10SM SCT100 22/11 A3012 RMK AO2 SLP204 T02220111 TSNO
PANN 200053Z AUTO VRB04KT 10SM BKN100 22/12 A3012 RMK AO2 SLP204 T02220117 TSNO
PANN 192353Z AUTO VRB06KT 10SM FEW055 BKN090 OVC110 21/11 A3012 RMK AO2 RAB44E53 SLP204 P0000 60000 T02110106 10228 20189 51005 TSNO
PANN 192253Z AUTO 30007KT 10SM OVC090 21/11 A3012 RMK AO2 SLP204 T02110111 TSNO
PANN 192153Z AUTO 26007KT 220V300 10SM SCT065 OVC110 22/12 A3011 RMK AO2 SLP201 T02220117 TSNO
PANN 192053Z AUTO 23007KT 10SM BKN047 BKN055 BKN080 22/12 A3011 RMK AO2 SLP199 T02170117 58005 TSNO
PANN 191953Z AUTO 25007G15KT 200V330 10SM FEW043 21/11 A3011 RMK AO2 SLP202 T02060111 TSNO